sensor_id;sensor_type;location;lat;lon;timestamp;pressure;altitude;pressure_sealevel;temperature;humidity
46876;BME280;32866;50.160;14.768;2023-02-24T00:00:26;98798.56;;;6.19;100.00
46876;BME280;32866;50.160;14.768;2023-02-24T00:03:03;98770.16;;;6.04;100.00
46876;BME280;32866;50.160;14.768;2023-02-24T00:05:45;98724.09;;;5.76;100.00
46876;BME280;32866;50.160;14.768;2023-02-24T00:08:21;98754.44;;;6.11;100.00
46876;BME280;32866;50.160;14.768;2023-02-24T00:10:51;98712.81;;;5.94;100.00
46876;BME280;32866;50.160;14.768;2023-02-24T00:13:58;98731.97;;;5.71;100.00
46876;BME280;32866;50.160;14.768;2023-02-24T00:16:35;98718.19;;;5.62;100.00
46876;BME280;32866;50.160;14.768;2023-02-24T00:19:29;98709.16;;;5.65;100.00
46876;BME280;32866;50.160;14.768;2023-02-24T00:22:16;98711.88;;;5.65;100.00
46876;BME280;32866;50.160;14.768;2023-02-24T00:24:55;98716.28;;;5.79;100.00
46876;BME280;32866;50.160;14.768;2023-02-24T00:27:26;98778.84;;;6.31;100.00
46876;BME280;32866;50.160;14.768;2023-02-24T00:30:00;98694.81;;;5.64;100.00
46876;BME280;32866;50.160;14.768;2023-02-24T00:32:32;98758.53;;;6.20;100.00
46876;BME280;32866;50.160;14.768;2023-02-24T00:35:04;98762.88;;;6.17;100.00
46876;BME280;32866;50.160;14.768;2023-02-24T00:37:35;98756.81;;;6.09;100.00
46876;BME280;32866;50.160;14.768;2023-02-24T00:40:12;98706.81;;;5.67;100.00
46876;BME280;32866;50.160;14.768;2023-02-24T00:42:43;98765.56;;;6.01;100.00
46876;BME280;32866;50.160;14.768;2023-02-24T00:45:16;98724.69;;;6.21;100.00
46876;BME280;32866;50.160;14.768;2023-02-24T00:47:58;98685.19;;;5.60;100.00
46876;BME280;32866;50.160;14.768;2023-02-24T00:50:59;98736.06;;;5.99;100.00
46876;BME280;32866;50.160;14.768;2023-02-24T00:53:44;98735.97;;;6.03;100.00
46876;BME280;32866;50.160;14.768;2023-02-24T00:56:11;98698.41;;;5.78;100.00
46876;BME280;32866;50.160;14.768;2023-02-24T00:59:20;98759.63;;;6.06;100.00
46876;BME280;32866;50.160;14.768;2023-02-24T01:01:49;98698.41;;;5.98;100.00
46876;BME280;32866;50.160;14.768;2023-02-24T01:04:27;98667.03;;;5.56;100.00
46876;BME280;32866;50.160;14.768;2023-02-24T01:06:58;98682.47;;;5.60;100.00
46876;BME280;32866;50.160;14.768;2023-02-24T01:09:32;98673.31;;;5.53;100.00
46876;BME280;32866;50.160;14.768;2023-02-24T01:12:33;98711.19;;;5.81;100.00
46876;BME280;32866;50.160;14.768;2023-02-24T01:15:21;98663.44;;;5.43;100.00
46876;BME280;32866;50.160;14.768;2023-02-24T01:17:53;98621.63;;;5.37;100.00
46876;BME280;32866;50.160;14.768;2023-02-24T01:20:45;98671.78;;;5.52;100.00
46876;BME280;32866;50.160;14.768;2023-02-24T01:23:24;98668.47;;;5.61;100.00
46876;BME280;32866;50.160;14.768;2023-02-24T01:25:51;98678.97;;;5.79;100.00
46876;BME280;32866;50.160;14.768;2023-02-24T01:28:25;98715.59;;;6.11;100.00
46876;BME280;32866;50.160;14.768;2023-02-24T01:30:54;98704.63;;;5.78;100.00
46876;BME280;32866;50.160;14.768;2023-02-24T01:33:40;98678.94;;;5.63;100.00
46876;BME280;32866;50.160;14.768;2023-02-24T01:36:32;98700.28;;;6.01;100.00
46876;BME280;32866;50.160;14.768;2023-02-24T01:39:11;98665.06;;;5.93;100.00
46876;BME280;32866;50.160;14.768;2023-02-24T01:41:57;98639.84;;;5.56;100.00
46876;BME280;32866;50.160;14.768;2023-02-24T01:47:13;98626.06;;;5.47;100.00
46876;BME280;32866;50.160;14.768;2023-02-24T01:49:51;98629.81;;;5.53;100.00
46876;BME280;32866;50.160;14.768;2023-02-24T01:52:31;98632.50;;;5.37;100.00
46876;BME280;32866;50.160;14.768;2023-02-24T01:55:21;98645.97;;;5.61;100.00
46876;BME280;32866;50.160;14.768;2023-02-24T01:57:59;98651.59;;;5.70;100.00
46876;BME280;32866;50.160;14.768;2023-02-24T02:00:45;98670.91;;;5.92;100.00
46876;BME280;32866;50.160;14.768;2023-02-24T02:03:29;98624.53;;;5.46;100.00
46876;BME280;32866;50.160;14.768;2023-02-24T02:06:28;98657.97;;;5.80;100.00
46876;BME280;32866;50.160;14.768;2023-02-24T02:11:26;98615.69;;;5.42;100.00
46876;BME280;32866;50.160;14.768;2023-02-24T02:14:08;98615.03;;;5.54;100.00
46876;BME280;32866;50.160;14.768;2023-02-24T02:37:09;98620.34;;;5.62;100.00
46876;BME280;32866;50.160;14.768;2023-02-24T02:40:06;98646.06;;;5.57;100.00
46876;BME280;32866;50.160;14.768;2023-02-24T02:48:42;98551.16;;;4.93;100.00
46876;BME280;32866;50.160;14.768;2023-02-24T02:51:28;98606.28;;;5.10;100.00
46876;BME280;32866;50.160;14.768;2023-02-24T02:54:50;98559.50;;;4.82;100.00
46876;BME280;32866;50.160;14.768;2023-02-24T02:57:33;98594.00;;;5.22;100.00
46876;BME280;32866;50.160;14.768;2023-02-24T03:00:39;98617.28;;;5.39;100.00
46876;BME280;32866;50.160;14.768;2023-02-24T03:03:38;98545.16;;;5.02;100.00
46876;BME280;32866;50.160;14.768;2023-02-24T03:06:29;98575.44;;;5.37;100.00
46876;BME280;32866;50.160;14.768;2023-02-24T03:09:39;98538.66;;;4.96;100.00
46876;BME280;32866;50.160;14.768;2023-02-24T03:12:19;98562.00;;;4.93;100.00
46876;BME280;32866;50.160;14.768;2023-02-24T03:15:13;98560.38;;;4.96;100.00
46876;BME280;32866;50.160;14.768;2023-02-24T03:18:00;98555.94;;;4.86;100.00
46876;BME280;32866;50.160;14.768;2023-02-24T03:20:49;98541.19;;;4.87;100.00
46876;BME280;32866;50.160;14.768;2023-02-24T03:23:24;98554.84;;;5.03;100.00
46876;BME280;32866;50.160;14.768;2023-02-24T03:38:04;98540.88;;;5.01;100.00
46876;BME280;32866;50.160;14.768;2023-02-24T03:40:37;98601.81;;;5.56;100.00
46876;BME280;32866;50.160;14.768;2023-02-24T03:43:41;98588.56;;;5.58;100.00
46876;BME280;32866;50.160;14.768;2023-02-24T03:46:30;98543.50;;;5.25;100.00
46876;BME280;32866;50.160;14.768;2023-02-24T03:49:14;98579.47;;;5.65;100.00
46876;BME280;32866;50.160;14.768;2023-02-24T03:56:12;98573.78;;;5.76;100.00
46876;BME280;32866;50.160;14.768;2023-02-24T04:01:41;98570.63;;;5.45;100.00
46876;BME280;32866;50.160;14.768;2023-02-24T04:04:45;98468.34;;;4.65;100.00
46876;BME280;32866;50.160;14.768;2023-02-24T04:08:04;98582.16;;;5.49;100.00
46876;BME280;32866;50.160;14.768;2023-02-24T04:10:55;98565.00;;;5.35;100.00
46876;BME280;32866;50.160;14.768;2023-02-24T04:13:45;98507.16;;;4.82;100.00
46876;BME280;32866;50.160;14.768;2023-02-24T04:16:29;98505.06;;;4.90;100.00
46876;BME280;32866;50.160;14.768;2023-02-24T04:19:08;98578.44;;;5.59;100.00
46876;BME280;32866;50.160;14.768;2023-02-24T04:22:24;98563.72;;;5.40;100.00
46876;BME280;32866;50.160;14.768;2023-02-24T04:25:23;98514.59;;;5.14;100.00
46876;BME280;32866;50.160;14.768;2023-02-24T04:28:30;98497.84;;;4.83;100.00
46876;BME280;32866;50.160;14.768;2023-02-24T04:31:21;98493.25;;;4.80;100.00
46876;BME280;32866;50.160;14.768;2023-02-24T04:34:03;98561.84;;;5.37;100.00
46876;BME280;32866;50.160;14.768;2023-02-24T04:36:42;98558.97;;;5.44;100.00
46876;BME280;32866;50.160;14.768;2023-02-24T04:39:22;98533.38;;;5.09;100.00
46876;BME280;32866;50.160;14.768;2023-02-24T04:41:51;98475.16;;;4.73;100.00
46876;BME280;32866;50.160;14.768;2023-02-24T04:44:27;98529.56;;;5.06;100.00
46876;BME280;32866;50.160;14.768;2023-02-24T04:47:03;98478.91;;;4.79;100.00
46876;BME280;32866;50.160;14.768;2023-02-24T04:53:35;98510.81;;;5.12;100.00
46876;BME280;32866;50.160;14.768;2023-02-24T04:57:03;98479.72;;;4.96;100.00
46876;BME280;32866;50.160;14.768;2023-02-24T05:00:24;98486.28;;;5.15;100.00
46876;BME280;32866;50.160;14.768;2023-02-24T05:03:03;98489.75;;;5.32;100.00
46876;BME280;32866;50.160;14.768;2023-02-24T05:05:39;98498.69;;;5.49;100.00
46876;BME280;32866;50.160;14.768;2023-02-24T05:11:52;98493.91;;;5.20;100.00
46876;BME280;32866;50.160;14.768;2023-02-24T05:14:47;98503.09;;;5.27;100.00
46876;BME280;32866;50.160;14.768;2023-02-24T05:18:13;98525.38;;;5.38;100.00
46876;BME280;32866;50.160;14.768;2023-02-24T05:21:32;98484.38;;;4.96;100.00
46876;BME280;32866;50.160;14.768;2023-02-24T05:25:09;98492.72;;;5.05;100.00
46876;BME280;32866;50.160;14.768;2023-02-24T05:27:52;98488.31;;;5.44;100.00
46876;BME280;32866;50.160;14.768;2023-02-24T05:30:49;98455.88;;;4.88;100.00
46876;BME280;32866;50.160;14.768;2023-02-24T05:33:43;98503.00;;;5.30;100.00
46876;BME280;32866;50.160;14.768;2023-02-24T05:37:01;98465.19;;;4.87;100.00
46876;BME280;32866;50.160;14.768;2023-02-24T05:39:49;98436.13;;;4.67;100.00
46876;BME280;32866;50.160;14.768;2023-02-24T05:46:24;98501.63;;;5.06;100.00
46876;BME280;32866;50.160;14.768;2023-02-24T05:49:20;98460.22;;;4.65;100.00
46876;BME280;32866;50.160;14.768;2023-02-24T05:52:30;98468.84;;;4.96;100.00
46876;BME280;32866;50.160;14.768;2023-02-24T05:55:43;98456.69;;;4.85;100.00
46876;BME280;32866;50.160;14.768;2023-02-24T05:59:13;98479.13;;;5.05;100.00
46876;BME280;32866;50.160;14.768;2023-02-24T06:02:51;98447.34;;;4.86;100.00
46876;BME280;32866;50.160;14.768;2023-02-24T06:06:20;98500.88;;;5.22;100.00
46876;BME280;32866;50.160;14.768;2023-02-24T06:24:12;98436.19;;;5.00;100.00
46876;BME280;32866;50.160;14.768;2023-02-24T06:27:06;98474.91;;;5.37;100.00
46876;BME280;32866;50.160;14.768;2023-02-24T06:30:15;98442.28;;;5.04;100.00
46876;BME280;32866;50.160;14.768;2023-02-24T06:32:42;98425.56;;;4.89;100.00
46876;BME280;32866;50.160;14.768;2023-02-24T06:35:08;98482.22;;;5.40;100.00
46876;BME280;32866;50.160;14.768;2023-02-24T06:38:01;98488.50;;;5.53;100.00
46876;BME280;32866;50.160;14.768;2023-02-24T06:40:28;98466.84;;;5.33;100.00
46876;BME280;32866;50.160;14.768;2023-02-24T06:42:55;98432.97;;;5.05;100.00
46876;BME280;32866;50.160;14.768;2023-02-24T06:51:13;98457.91;;;5.66;100.00
46876;BME280;32866;50.160;14.768;2023-02-24T06:53:40;98457.88;;;5.82;100.00
46876;BME280;32866;50.160;14.768;2023-02-24T06:56:09;98464.59;;;5.78;100.00
46876;BME280;32866;50.160;14.768;2023-02-24T06:58:46;98460.59;;;5.82;100.00
46876;BME280;32866;50.160;14.768;2023-02-24T07:01:13;98466.19;;;5.91;100.00
46876;BME280;32866;50.160;14.768;2023-02-24T07:03:39;98467.91;;;5.85;100.00
46876;BME280;32866;50.160;14.768;2023-02-24T07:06:06;98443.44;;;5.85;100.00
46876;BME280;32866;50.160;14.768;2023-02-24T07:08:45;98461.63;;;5.88;100.00
46876;BME280;32866;50.160;14.768;2023-02-24T07:11:11;98470.63;;;5.85;100.00
46876;BME280;32866;50.160;14.768;2023-02-24T07:13:38;98469.84;;;5.85;100.00
46876;BME280;32866;50.160;14.768;2023-02-24T07:16:06;98458.91;;;5.88;100.00
46876;BME280;32866;50.160;14.768;2023-02-24T07:18:36;98447.00;;;5.99;100.00
46876;BME280;32866;50.160;14.768;2023-02-24T07:21:05;98440.63;;;6.05;100.00
46876;BME280;32866;50.160;14.768;2023-02-24T07:23:39;98451.09;;;6.20;100.00
46876;BME280;32866;50.160;14.768;2023-02-24T07:26:13;98410.28;;;6.07;100.00
46876;BME280;32866;50.160;14.768;2023-02-24T07:28:41;98435.72;;;6.42;100.00
46876;BME280;32866;50.160;14.768;2023-02-24T07:31:09;98439.31;;;6.52;100.00
46876;BME280;32866;50.160;14.768;2023-02-24T07:33:40;98434.75;;;6.75;100.00
46876;BME280;32866;50.160;14.768;2023-02-24T07:36:12;98442.16;;;6.87;100.00
46876;BME280;32866;50.160;14.768;2023-02-24T07:38:47;98418.19;;;6.56;100.00
46876;BME280;32866;50.160;14.768;2023-02-24T07:41:13;98439.22;;;6.68;100.00
46876;BME280;32866;50.160;14.768;2023-02-24T07:43:43;98427.56;;;6.55;100.00
46876;BME280;32866;50.160;14.768;2023-02-24T07:46:15;98427.69;;;6.64;100.00
46876;BME280;32866;50.160;14.768;2023-02-24T07:48:43;98422.03;;;6.72;100.00
46876;BME280;32866;50.160;14.768;2023-02-24T07:51:10;98420.81;;;6.98;100.00
46876;BME280;32866;50.160;14.768;2023-02-24T07:53:37;98408.31;;;7.01;100.00
46876;BME280;32866;50.160;14.768;2023-02-24T07:56:09;98418.63;;;7.19;100.00
46876;BME280;32866;50.160;14.768;2023-02-24T07:58:43;98419.78;;;7.43;100.00
46876;BME280;32866;50.160;14.768;2023-02-24T08:01:16;98414.19;;;7.60;100.00
46876;BME280;32866;50.160;14.768;2023-02-24T08:04:07;98414.09;;;7.86;100.00
46876;BME280;32866;50.160;14.768;2023-02-24T08:10:00;98388.00;;;8.51;100.00
46876;BME280;32866;50.160;14.768;2023-02-24T08:12:39;98389.31;;;9.27;100.00
46876;BME280;32866;50.160;14.768;2023-02-24T08:15:09;98381.94;;;9.74;100.00
46876;BME280;32866;50.160;14.768;2023-02-24T08:17:42;98368.53;;;9.39;100.00
46876;BME280;32866;50.160;14.768;2023-02-24T08:20:08;98381.75;;;9.50;100.00
46876;BME280;32866;50.160;14.768;2023-02-24T08:22:44;98386.00;;;9.42;100.00
46876;BME280;32866;50.160;14.768;2023-02-24T08:25:14;98396.63;;;9.40;100.00
46876;BME280;32866;50.160;14.768;2023-02-24T08:27:43;98369.47;;;8.77;100.00
46876;BME280;32866;50.160;14.768;2023-02-24T08:30:10;98385.00;;;8.36;100.00
46876;BME280;32866;50.160;14.768;2023-02-24T08:32:50;98386.25;;;8.66;100.00
46876;BME280;32866;50.160;14.768;2023-02-24T08:35:22;98382.63;;;8.38;100.00
46876;BME280;32866;50.160;14.768;2023-02-24T08:37:52;98377.03;;;7.97;100.00
46876;BME280;32866;50.160;14.768;2023-02-24T08:40:25;98384.91;;;8.17;100.00
46876;BME280;32866;50.160;14.768;2023-02-24T08:43:11;98380.13;;;8.31;100.00
46876;BME280;32866;50.160;14.768;2023-02-24T08:46:11;98376.38;;;8.60;100.00
46876;BME280;32866;50.160;14.768;2023-02-24T08:48:45;98362.59;;;8.63;100.00
46876;BME280;32866;50.160;14.768;2023-02-24T08:53:40;98374.91;;;9.27;100.00
46876;BME280;32866;50.160;14.768;2023-02-24T08:56:08;98356.16;;;8.98;100.00
46876;BME280;32866;50.160;14.768;2023-02-24T08:58:44;98376.38;;;9.00;100.00
46876;BME280;32866;50.160;14.768;2023-02-24T09:01:18;98371.31;;;8.89;100.00
46876;BME280;32866;50.160;14.768;2023-02-24T09:03:49;98372.78;;;8.81;100.00
46876;BME280;32866;50.160;14.768;2023-02-24T09:06:18;98343.19;;;8.70;100.00
46876;BME280;32866;50.160;14.768;2023-02-24T09:08:51;98360.13;;;8.97;100.00
46876;BME280;32866;50.160;14.768;2023-02-24T09:11:37;98354.84;;;8.71;100.00
46876;BME280;32866;50.160;14.768;2023-02-24T09:14:02;98357.50;;;8.93;100.00
46876;BME280;32866;50.160;14.768;2023-02-24T09:16:29;98359.22;;;9.09;100.00
46876;BME280;32866;50.160;14.768;2023-02-24T09:18:54;98347.81;;;8.92;100.00
46876;BME280;32866;50.160;14.768;2023-02-24T09:21:38;98352.31;;;8.86;100.00
46876;BME280;32866;50.160;14.768;2023-02-24T09:24:23;98349.44;;;8.89;100.00
46876;BME280;32866;50.160;14.768;2023-02-24T09:26:55;98350.97;;;8.90;100.00
46876;BME280;32866;50.160;14.768;2023-02-24T09:29:29;98353.72;;;8.90;100.00
46876;BME280;32866;50.160;14.768;2023-02-24T09:32:01;98350.41;;;9.05;100.00
46876;BME280;32866;50.160;14.768;2023-02-24T09:34:37;98314.28;;;9.10;100.00
46876;BME280;32866;50.160;14.768;2023-02-24T09:37:13;98330.66;;;8.91;100.00
46876;BME280;32866;50.160;14.768;2023-02-24T09:39:53;98337.47;;;8.96;100.00
46876;BME280;32866;50.160;14.768;2023-02-24T09:42:22;98331.81;;;8.81;100.00
46876;BME280;32866;50.160;14.768;2023-02-24T09:45:05;98330.41;;;8.58;100.00
46876;BME280;32866;50.160;14.768;2023-02-24T09:47:42;98331.06;;;8.40;100.00
46876;BME280;32866;50.160;14.768;2023-02-24T09:50:27;98298.75;;;8.07;100.00
46876;BME280;32866;50.160;14.768;2023-02-24T09:53:12;98302.88;;;8.43;100.00
46876;BME280;32866;50.160;14.768;2023-02-24T09:55:50;98299.44;;;8.61;100.00
46876;BME280;32866;50.160;14.768;2023-02-24T10:07:07;98315.06;;;9.57;100.00
46876;BME280;32866;50.160;14.768;2023-02-24T10:10:00;98305.78;;;9.63;100.00
46876;BME280;32866;50.160;14.768;2023-02-24T10:12:46;98291.81;;;9.43;100.00
46876;BME280;32866;50.160;14.768;2023-02-24T10:15:18;98302.59;;;9.46;100.00
46876;BME280;32866;50.160;14.768;2023-02-24T10:17:49;98299.41;;;9.48;100.00
46876;BME280;32866;50.160;14.768;2023-02-24T10:20:19;98285.44;;;9.64;100.00
46876;BME280;32866;50.160;14.768;2023-02-24T10:23:21;98273.88;;;9.70;100.00
46876;BME280;32866;50.160;14.768;2023-02-24T10:31:26;98249.19;;;11.51;100.00
46876;BME280;32866;50.160;14.768;2023-02-24T10:33:58;98245.06;;;12.92;100.00
46876;BME280;32866;50.160;14.768;2023-02-24T10:36:25;98236.31;;;13.61;100.00
46876;BME280;32866;50.160;14.768;2023-02-24T10:39:21;98247.91;;;13.04;100.00
46876;BME280;32866;50.160;14.768;2023-02-24T10:42:10;98252.69;;;14.77;100.00
46876;BME280;32866;50.160;14.768;2023-02-24T10:45:25;98221.75;;;13.87;100.00
46876;BME280;32866;50.160;14.768;2023-02-24T10:48:33;98200.84;;;12.34;100.00
46876;BME280;32866;50.160;14.768;2023-02-24T10:51:15;98207.38;;;11.57;100.00
46876;BME280;32866;50.160;14.768;2023-02-24T10:53:49;98136.25;;;10.69;100.00
46876;BME280;32866;50.160;14.768;2023-02-24T10:56:50;98174.88;;;10.23;100.00
46876;BME280;32866;50.160;14.768;2023-02-24T11:00:16;98160.06;;;10.06;100.00
46876;BME280;32866;50.160;14.768;2023-02-24T11:02:55;98182.03;;;9.87;100.00
46876;BME280;32866;50.160;14.768;2023-02-24T11:05:40;98205.56;;;9.42;100.00
46876;BME280;32866;50.160;14.768;2023-02-24T11:08:29;98208.91;;;8.90;100.00
46876;BME280;32866;50.160;14.768;2023-02-24T11:13:54;98189.91;;;8.09;100.00
46876;BME280;32866;50.160;14.768;2023-02-24T11:16:50;98182.81;;;8.12;100.00
46876;BME280;32866;50.160;14.768;2023-02-24T11:22:18;98126.19;;;12.77;100.00
46876;BME280;32866;50.160;14.768;2023-02-24T11:24:45;98156.66;;;13.84;100.00
46876;BME280;32866;50.160;14.768;2023-02-24T11:27:27;98138.69;;;12.37;100.00
46876;BME280;32866;50.160;14.768;2023-02-24T11:33:10;98142.16;;;10.92;100.00
46876;BME280;32866;50.160;14.768;2023-02-24T11:44:14;98100.06;;;10.65;100.00
46876;BME280;32866;50.160;14.768;2023-02-24T11:46:44;98117.09;;;10.21;100.00
46876;BME280;32866;50.160;14.768;2023-02-24T11:49:27;98109.28;;;10.05;100.00
46876;BME280;32866;50.160;14.768;2023-02-24T11:51:54;98070.22;;;11.77;100.00
46876;BME280;32866;50.160;14.768;2023-02-24T11:54:22;98092.56;;;15.03;100.00
46876;BME280;32866;50.160;14.768;2023-02-24T11:56:52;98077.00;;;15.06;100.00
46876;BME280;32866;50.160;14.768;2023-02-24T11:59:41;98079.00;;;13.74;100.00
46876;BME280;32866;50.160;14.768;2023-02-24T12:02:21;98071.84;;;12.92;100.00
46876;BME280;32866;50.160;14.768;2023-02-24T12:08:02;98065.91;;;13.26;100.00
46876;BME280;32866;50.160;14.768;2023-02-24T12:10:34;98041.63;;;12.92;100.00
46876;BME280;32866;50.160;14.768;2023-02-24T12:13:20;98048.00;;;12.84;100.00
46876;BME280;32866;50.160;14.768;2023-02-24T12:16:24;98049.53;;;12.85;100.00
46876;BME280;32866;50.160;14.768;2023-02-24T12:22:16;98010.97;;;11.85;100.00
46876;BME280;32866;50.160;14.768;2023-02-24T12:24:50;97965.53;;;10.63;100.00
46876;BME280;32866;50.160;14.768;2023-02-24T12:27:39;98049.88;;;10.59;100.00
46876;BME280;32866;50.160;14.768;2023-02-24T12:39:20;98015.13;;;9.29;100.00
46876;BME280;32866;50.160;14.768;2023-02-24T12:42:00;97993.88;;;9.58;100.00
46876;BME280;32866;50.160;14.768;2023-02-24T12:44:43;98024.72;;;9.82;100.00
46876;BME280;32866;50.160;14.768;2023-02-24T12:47:26;97995.03;;;9.90;100.00
46876;BME280;32866;50.160;14.768;2023-02-24T12:55:45;98002.19;;;10.51;100.00
46876;BME280;32866;50.160;14.768;2023-02-24T12:58:24;97994.22;;;12.24;100.00
46876;BME280;32866;50.160;14.768;2023-02-24T13:06:44;97977.56;;;11.87;100.00
46876;BME280;32866;50.160;14.768;2023-02-24T13:12:20;97942.72;;;11.93;100.00
46876;BME280;32866;50.160;14.768;2023-02-24T13:14:51;97965.97;;;12.18;100.00
46876;BME280;32866;50.160;14.768;2023-02-24T13:17:18;97964.22;;;11.59;100.00
46876;BME280;32866;50.160;14.768;2023-02-24T13:19:45;97926.66;;;11.45;100.00
46876;BME280;32866;50.160;14.768;2023-02-24T13:27:34;97957.72;;;10.56;100.00
46876;BME280;32866;50.160;14.768;2023-02-24T13:32:40;97937.50;;;9.99;100.00
46876;BME280;32866;50.160;14.768;2023-02-24T13:37:41;97930.22;;;10.35;100.00
46876;BME280;32866;50.160;14.768;2023-02-24T13:45:33;97911.81;;;9.97;100.00
46876;BME280;32866;50.160;14.768;2023-02-24T13:51:06;97909.75;;;9.92;100.00
46876;BME280;32866;50.160;14.768;2023-02-24T13:54:01;97909.28;;;9.93;100.00
46876;BME280;32866;50.160;14.768;2023-02-24T13:59:42;97900.16;;;10.26;100.00
46876;BME280;32866;50.160;14.768;2023-02-24T14:02:15;97891.78;;;10.45;100.00
46876;BME280;32866;50.160;14.768;2023-02-24T14:04:50;97894.16;;;10.37;100.00
46876;BME280;32866;50.160;14.768;2023-02-24T14:07:23;97896.50;;;10.29;100.00
46876;BME280;32866;50.160;14.768;2023-02-24T14:09:57;97893.94;;;10.26;100.00
46876;BME280;32866;50.160;14.768;2023-02-24T14:12:25;97888.06;;;10.18;100.00
46876;BME280;32866;50.160;14.768;2023-02-24T14:14:52;97880.28;;;9.87;100.00
46876;BME280;32866;50.160;14.768;2023-02-24T14:17:25;97876.94;;;10.07;100.00
46876;BME280;32866;50.160;14.768;2023-02-24T14:19:54;97871.38;;;10.01;100.00
46876;BME280;32866;50.160;14.768;2023-02-24T14:22:20;97865.78;;;9.95;100.00
46876;BME280;32866;50.160;14.768;2023-02-24T14:24:45;97868.22;;;9.93;100.00
46876;BME280;32866;50.160;14.768;2023-02-24T14:27:24;97860.88;;;9.99;100.00
46876;BME280;32866;50.160;14.768;2023-02-24T14:29:51;97858.72;;;10.03;100.00
46876;BME280;32866;50.160;14.768;2023-02-24T14:32:21;97854.56;;;9.93;100.00
46876;BME280;32866;50.160;14.768;2023-02-24T14:34:47;97811.78;;;9.66;100.00
46876;BME280;32866;50.160;14.768;2023-02-24T14:37:12;97844.44;;;9.84;100.00
46876;BME280;32866;50.160;14.768;2023-02-24T14:39:51;97821.50;;;9.52;100.00
46876;BME280;32866;50.160;14.768;2023-02-24T14:42:17;97840.47;;;9.71;100.00
46876;BME280;32866;50.160;14.768;2023-02-24T14:44:53;97831.81;;;9.72;100.00
46876;BME280;32866;50.160;14.768;2023-02-24T14:47:21;97834.06;;;9.74;100.00
46876;BME280;32866;50.160;14.768;2023-02-24T14:50:00;97825.94;;;9.64;100.00
46876;BME280;32866;50.160;14.768;2023-02-24T14:52:36;97784.97;;;9.40;100.00
46876;BME280;32866;50.160;14.768;2023-02-24T14:55:12;97831.19;;;9.53;100.00
46876;BME280;32866;50.160;14.768;2023-02-24T15:00:34;97824.41;;;9.63;100.00
46876;BME280;32866;50.160;14.768;2023-02-24T15:03:04;97814.44;;;9.60;100.00
46876;BME280;32866;50.160;14.768;2023-02-24T15:05:39;97808.16;;;9.45;100.00
46876;BME280;32866;50.160;14.768;2023-02-24T15:10:50;97804.44;;;9.57;100.00
46876;BME280;32866;50.160;14.768;2023-02-24T15:13:24;97804.91;;;9.56;100.00
46876;BME280;32866;50.160;14.768;2023-02-24T15:15:51;97808.94;;;9.45;100.00
46876;BME280;32866;50.160;14.768;2023-02-24T15:18:25;97797.31;;;9.36;100.00
46876;BME280;32866;50.160;14.768;2023-02-24T15:21:02;97763.97;;;9.07;100.00
46876;BME280;32866;50.160;14.768;2023-02-24T15:23:33;97761.91;;;9.17;100.00
46876;BME280;32866;50.160;14.768;2023-02-24T15:26:00;97786.44;;;9.26;100.00
46876;BME280;32866;50.160;14.768;2023-02-24T15:28:34;97749.88;;;9.00;100.00
46876;BME280;32866;50.160;14.768;2023-02-24T15:31:06;97784.06;;;9.19;100.00
46876;BME280;32866;50.160;14.768;2023-02-24T15:33:43;97772.56;;;9.15;100.00
46876;BME280;32866;50.160;14.768;2023-02-24T15:36:16;97766.78;;;9.13;100.00
46876;BME280;32866;50.160;14.768;2023-02-24T15:38:43;97761.09;;;9.26;100.00
46876;BME280;32866;50.160;14.768;2023-02-24T15:41:10;97753.44;;;9.15;100.00
46876;BME280;32866;50.160;14.768;2023-02-24T15:46:32;97762.69;;;8.94;100.00
46876;BME280;32866;50.160;14.768;2023-02-24T15:48:58;97753.06;;;8.83;100.00
46876;BME280;32866;50.160;14.768;2023-02-24T15:51:40;97762.00;;;8.84;100.00
46876;BME280;32866;50.160;14.768;2023-02-24T15:54:10;97752.47;;;8.79;100.00
46876;BME280;32866;50.160;14.768;2023-02-24T15:56:37;97747.41;;;8.87;100.00
46876;BME280;32866;50.160;14.768;2023-02-24T15:59:04;97721.09;;;8.50;100.00
46876;BME280;32866;50.160;14.768;2023-02-24T16:01:31;97738.00;;;8.64;100.00
46876;BME280;32866;50.160;14.768;2023-02-24T16:03:57;97710.81;;;8.45;100.00
46876;BME280;32866;50.160;14.768;2023-02-24T16:06:24;97732.72;;;8.60;100.00
46876;BME280;32866;50.160;14.768;2023-02-24T16:08:51;97717.03;;;8.36;100.00
46876;BME280;32866;50.160;14.768;2023-02-24T16:11:21;97716.91;;;8.31;100.00
46876;BME280;32866;50.160;14.768;2023-02-24T16:14:11;97732.28;;;8.52;100.00
46876;BME280;32866;50.160;14.768;2023-02-24T16:16:39;97725.34;;;8.51;100.00
46876;BME280;32866;50.160;14.768;2023-02-24T16:19:05;97699.44;;;8.38;100.00
46876;BME280;32866;50.160;14.768;2023-02-24T16:21:31;97718.38;;;8.41;100.00
46876;BME280;32866;50.160;14.768;2023-02-24T16:23:56;97711.75;;;8.33;100.00
46876;BME280;32866;50.160;14.768;2023-02-24T16:26:22;97707.53;;;8.23;100.00
46876;BME280;32866;50.160;14.768;2023-02-24T16:28:52;97714.31;;;8.36;100.00
46876;BME280;32866;50.160;14.768;2023-02-24T16:31:19;97714.78;;;8.35;100.00
46876;BME280;32866;50.160;14.768;2023-02-24T16:33:44;97715.81;;;8.38;100.00
46876;BME280;32866;50.160;14.768;2023-02-24T16:36:11;97703.31;;;8.22;100.00
46876;BME280;32866;50.160;14.768;2023-02-24T16:38:37;97702.16;;;8.13;100.00
46876;BME280;32866;50.160;14.768;2023-02-24T16:41:06;97693.31;;;8.18;100.00
46876;BME280;32866;50.160;14.768;2023-02-24T16:43:31;97703.22;;;8.07;100.00
46876;BME280;32866;50.160;14.768;2023-02-24T16:46:01;97702.22;;;7.95;100.00
46876;BME280;32866;50.160;14.768;2023-02-24T16:48:28;97706.75;;;7.98;100.00
46876;BME280;32866;50.160;14.768;2023-02-24T16:50:59;97708.09;;;8.03;100.00